Time;durP1;ratioP1;P1;durP2;ratioP2;P2;SDS_P1;SDS_P2;PMS_P1;PMS_P2;Temp;Humidity;BMP_temperature;BMP_pressure;BME280_temperature;BME280_humidity;BME280_pressure;Samples;Min_cycle;Max_cycle;Signal;HPM_P1;HPM_P2
2023/05/27 00:01:05;;;;;;;14.75;3.33;;;9.70;99.90;;;;;;5076150;28;20041;-80
2023/05/27 00:03:32;;;;;;;22.13;3.22;;;9.70;99.90;;;;;;5075860;28;20045;-80
2023/05/27 00:05:59;;;;;;;18.20;3.33;;;9.70;99.90;;;;;;5076985;28;20123;-80
2023/05/27 00:08:25;;;;;;;19.23;3.47;;;9.80;99.90;;;;;;5074149;28;20693;-80
2023/05/27 00:10:52;;;;;;;12.25;2.80;;;9.80;99.90;;;;;;5074810;28;20525;-80
2023/05/27 00:13:19;;;;;;;22.67;3.55;;;9.70;99.90;;;;;;5076100;28;20044;-80
2023/05/27 00:15:45;;;;;;;19.42;3.38;;;9.70;99.90;;;;;;5076135;28;20094;-80
2023/05/27 00:18:12;;;;;;;15.65;3.42;;;9.70;99.90;;;;;;5076747;28;20041;-80
2023/05/27 00:20:39;;;;;;;15.27;3.03;;;9.70;99.90;;;;;;5076704;28;20041;-80
2023/05/27 00:23:06;;;;;;;14.60;3.10;;;9.70;99.90;;;;;;5074654;28;20055;-80
2023/05/27 00:25:33;;;;;;;19.35;3.50;;;9.70;99.90;;;;;;5076529;28;20079;-79
2023/05/27 00:28:00;;;;;;;29.65;3.70;;;9.70;99.90;;;;;;5075720;28;20522;-79
2023/05/27 00:30:27;;;;;;;20.13;3.25;;;9.70;99.90;;;;;;5075982;28;20127;-79
2023/05/27 00:32:54;;;;;;;12.73;2.80;;;9.60;99.90;;;;;;5076129;28;20503;-79
2023/05/27 00:35:21;;;;;;;22.13;2.97;;;9.60;99.90;;;;;;5075408;28;20418;-79
2023/05/27 00:40:35;;;;;;;14.77;2.80;;;9.60;99.90;;;;;;5076361;28;20060;-79
2023/05/27 00:43:02;;;;;;;19.05;3.33;;;9.50;99.90;;;;;;5074168;28;20418;-79
2023/05/27 00:45:30;;;;;;;16.67;3.35;;;9.50;99.90;;;;;;5075543;28;20102;-79
2023/05/27 00:47:57;;;;;;;19.15;3.13;;;9.50;99.90;;;;;;5075421;28;20041;-79
2023/05/27 00:50:27;;;;;;;19.33;3.08;;;9.40;99.90;;;;;;5074315;28;20144;-79
2023/05/27 00:52:55;;;;;;;20.05;3.45;;;9.40;99.90;;;;;;5076110;28;20068;-80
2023/05/27 00:55:22;;;;;;;21.63;3.03;;;9.40;99.90;;;;;;5075074;28;20055;-79
2023/05/27 00:57:53;;;;;;;12.80;2.88;;;9.40;99.90;;;;;;5057809;28;20413;-79
2023/05/27 01:00:20;;;;;;;23.37;4.20;;;9.30;99.90;;;;;;5075404;28;20505;-79
2023/05/27 01:02:47;;;;;;;15.30;3.53;;;9.30;99.90;;;;;;5074835;28;20356;-79
2023/05/27 01:05:13;;;;;;;10.52;3.13;;;9.30;99.90;;;;;;5074983;28;20040;-79
2023/05/27 01:10:26;;;;;;;20.42;3.95;;;9.30;99.90;;;;;;5074881;28;20040;-79
2023/05/27 01:12:53;;;;;;;14.38;3.25;;;9.20;99.90;;;;;;5074550;28;20451;-79
2023/05/27 01:15:19;;;;;;;17.52;3.25;;;9.20;99.90;;;;;;5075812;28;20425;-80
2023/05/27 01:20:18;;;;;;;13.23;3.03;;;9.20;99.90;;;;;;5074600;28;20139;-79
2023/05/27 01:22:45;;;;;;;13.02;2.80;;;9.20;99.90;;;;;;5073709;28;20040;-79
2023/05/27 01:25:12;;;;;;;15.45;3.25;;;9.20;99.90;;;;;;5074327;28;20040;-79
2023/05/27 01:27:40;;;;;;;13.82;3.03;;;9.20;99.90;;;;;;5057817;28;20137;-79
2023/05/27 01:30:07;;;;;;;15.25;3.83;;;9.10;99.90;;;;;;5074512;28;20051;-81
2023/05/27 01:32:33;;;;;;;16.05;3.13;;;9.10;99.90;;;;;;5074147;28;20047;-79
2023/05/27 01:35:00;;;;;;;16.23;3.55;;;9.10;99.90;;;;;;5074473;28;20040;-79
2023/05/27 01:37:28;;;;;;;14.73;3.65;;;9.10;99.90;;;;;;5073567;28;20040;-79
2023/05/27 01:39:56;;;;;;;16.23;3.45;;;9.00;99.90;;;;;;5074227;28;20124;-79
2023/05/27 01:42:23;;;;;;;17.75;3.97;;;9.00;99.90;;;;;;5073033;28;20053;-79
2023/05/27 01:44:50;;;;;;;18.02;3.35;;;9.00;99.90;;;;;;5074108;28;20048;-79
2023/05/27 01:47:19;;;;;;;21.10;3.65;;;9.00;99.90;;;;;;5057705;28;20098;-79
2023/05/27 01:49:46;;;;;;;13.35;3.15;;;9.00;99.90;;;;;;5073320;28;20091;-79
2023/05/27 01:52:14;;;;;;;16.80;3.22;;;8.90;99.90;;;;;;5073717;28;20044;-79
2023/05/27 01:54:41;;;;;;;20.10;3.30;;;9.00;99.90;;;;;;5074056;28;20409;-79
2023/05/27 01:59:53;;;;;;;17.77;3.17;;;8.90;99.90;;;;;;5073985;28;20076;-79
2023/05/27 02:02:21;;;;;;;26.73;3.95;;;8.90;99.90;;;;;;5072944;28;20032;-79
2023/05/27 02:04:49;;;;;;;12.00;2.70;;;8.90;99.90;;;;;;5074082;28;20079;-79
2023/05/27 02:07:19;;;;;;;16.10;3.03;;;8.80;99.90;;;;;;5057339;28;20040;-79
2023/05/27 02:09:48;;;;;;;19.80;3.75;;;8.80;99.90;;;;;;5073189;28;20047;-79
2023/05/27 02:12:14;;;;;;;13.40;3.30;;;8.80;99.90;;;;;;5073501;28;20082;-79
2023/05/27 02:14:41;;;;;;;14.40;3.30;;;8.70;99.90;;;;;;5057134;28;20041;-79
2023/05/27 02:17:08;;;;;;;13.90;3.10;;;8.70;99.90;;;;;;5073626;28;20094;-80
2023/05/27 02:19:35;;;;;;;11.27;3.05;;;8.70;99.90;;;;;;5057181;28;20055;-79
2023/05/27 02:22:06;;;;;;;18.20;3.17;;;8.70;99.90;;;;;;5073691;28;20056;-79
2023/05/27 02:24:33;;;;;;;15.93;3.05;;;8.70;99.90;;;;;;5072845;28;20364;-79
2023/05/27 02:29:45;;;;;;;19.90;2.75;;;8.60;99.90;;;;;;5072806;28;20040;-79
2023/05/27 02:32:12;;;;;;;15.70;3.15;;;8.60;99.90;;;;;;5078052;28;20068;-79
2023/05/27 02:34:42;;;;;;;14.88;3.33;;;8.60;99.90;;;;;;5077744;28;20498;-78
2023/05/27 02:37:11;;;;;;;16.38;3.00;;;8.50;99.90;;;;;;5076878;28;20068;-81
2023/05/27 02:39:38;;;;;;;13.05;2.80;;;8.50;99.90;;;;;;5077916;28;20401;-79
2023/05/27 02:42:06;;;;;;;10.85;3.00;;;8.50;99.90;;;;;;5077211;28;20064;-81
2023/05/27 02:44:33;;;;;;;14.05;2.88;;;8.50;99.90;;;;;;5076719;28;20037;-79
2023/05/27 02:49:46;;;;;;;18.52;3.60;;;8.40;99.90;;;;;;5076637;28;20379;-80
2023/05/27 02:52:13;;;;;;;17.63;3.40;;;8.40;99.90;;;;;;5060635;28;20060;-79
2023/05/27 02:54:40;;;;;;;12.90;3.22;;;8.40;99.90;;;;;;5060904;28;20379;-79
2023/05/27 02:57:08;;;;;;;13.88;3.38;;;8.50;99.90;;;;;;5077509;28;20037;-78
2023/05/27 02:59:35;;;;;;;10.52;2.75;;;8.50;99.90;;;;;;5060787;28;20051;-79
2023/05/27 03:02:02;;;;;;;21.75;3.60;;;8.40;99.90;;;;;;5077057;28;20131;-79
2023/05/27 03:04:30;;;;;;;23.50;2.92;;;8.30;99.90;;;;;;5077370;28;20107;-79
2023/05/27 03:06:58;;;;;;;14.65;2.78;;;8.30;99.90;;;;;;5078070;28;20540;-79
2023/05/27 03:09:24;;;;;;;14.95;2.92;;;8.30;99.90;;;;;;5076424;28;20055;-79
2023/05/27 03:11:51;;;;;;;10.02;2.95;;;8.30;99.90;;;;;;5076683;28;20455;-80
2023/05/27 03:14:19;;;;;;;18.00;3.28;;;8.30;99.90;;;;;;5077058;28;20064;-79
2023/05/27 03:16:46;;;;;;;13.57;2.88;;;8.20;99.90;;;;;;5076110;28;20044;-80
2023/05/27 03:19:13;;;;;;;13.88;2.65;;;8.20;99.90;;;;;;5077950;28;20071;-79
2023/05/27 03:21:40;;;;;;;13.25;2.45;;;8.20;99.90;;;;;;5077031;28;20064;-79
2023/05/27 03:24:07;;;;;;;15.30;3.08;;;8.10;99.90;;;;;;5075832;28;20052;-79
2023/05/27 03:26:35;;;;;;;16.05;2.88;;;8.10;99.90;;;;;;5077150;28;20045;-80
2023/05/27 03:29:04;;;;;;;9.70;2.80;;;8.10;99.90;;;;;;5059587;28;20072;-79
2023/05/27 03:31:31;;;;;;;14.80;2.55;;;8.00;99.90;;;;;;5076771;28;20093;-79
2023/05/27 03:34:03;;;;;;;;;;;8.00;99.90;;;;;;5061137;28;20044;-79
2023/05/27 03:36:31;;;;;;;19.13;2.65;;;8.00;99.90;;;;;;5076729;28;19929;-79
2023/05/27 03:38:58;;;;;;;17.25;2.67;;;8.00;99.90;;;;;;5076712;28;20463;-79
2023/05/27 03:41:27;;;;;;;13.05;2.63;;;8.00;99.90;;;;;;5059998;28;20055;-79
2023/05/27 03:43:54;;;;;;;10.23;3.13;;;8.00;99.90;;;;;;5038979;28;20049;-79
2023/05/27 03:49:08;;;;;;;11.00;2.83;;;8.00;99.90;;;;;;5039899;28;20053;-79
2023/05/27 03:51:35;;;;;;;8.82;2.95;;;8.00;99.90;;;;;;5023357;28;20037;-79
2023/05/27 03:54:02;;;;;;;17.95;3.10;;;8.00;99.90;;;;;;5039290;28;20045;-79
2023/05/27 03:56:31;;;;;;;14.05;2.67;;;8.00;99.90;;;;;;5038889;28;20135;-79
2023/05/27 03:58:58;;;;;;;13.27;3.40;;;8.00;99.90;;;;;;5039600;28;20049;-79
2023/05/27 04:01:27;;;;;;;13.32;3.42;;;8.10;99.90;;;;;;5039468;28;20045;-79
2023/05/27 04:03:54;;;;;;;10.02;2.65;;;8.10;99.90;;;;;;5038288;28;20049;-79
2023/05/27 04:09:08;;;;;;;12.38;3.38;;;8.10;99.90;;;;;;5056237;28;20045;-79
2023/05/27 04:11:34;;;;;;;18.92;2.97;;;8.00;99.90;;;;;;5039499;28;20123;-80
2023/05/27 04:14:01;;;;;;;9.98;2.88;;;8.00;99.90;;;;;;5039011;28;20463;-80
2023/05/27 04:16:30;;;;;;;16.50;3.20;;;8.00;99.90;;;;;;5021954;28;20479;-79
2023/05/27 04:18:58;;;;;;;15.50;2.90;;;8.10;99.90;;;;;;5039384;28;20068;-79
2023/05/27 04:21:24;;;;;;;12.07;2.97;;;8.00;99.90;;;;;;5039099;28;20037;-79
2023/05/27 04:23:54;;;;;;;22.58;3.50;;;8.00;99.90;;;;;;5038103;28;20055;-79
2023/05/27 04:29:11;;;;;;;15.07;2.72;;;8.00;99.90;;;;;;5038188;28;20102;-79
2023/05/27 04:31:38;;;;;;;10.80;3.08;;;8.00;99.90;;;;;;5038878;28;20041;-79
2023/05/27 04:34:10;;;;;;;;;;;8.00;99.90;;;;;;5039408;28;20041;-80
2023/05/27 04:39:26;;;;;;;7.95;2.40;;;8.10;99.90;;;;;;5038896;28;20471;-79
2023/05/27 04:41:56;;;;;;;18.63;3.00;;;8.10;99.90;;;;;;5042530;28;20099;-79
2023/05/27 04:44:29;;;;;;;13.55;3.08;;;8.20;99.90;;;;;;5074588;28;20045;-79
2023/05/27 04:47:00;;;;;;;17.35;3.33;;;8.20;99.90;;;;;;5075301;28;20383;-79
2023/05/27 04:49:28;;;;;;;12.73;3.17;;;8.30;99.90;;;;;;5074672;28;20041;-79
2023/05/27 04:51:55;;;;;;;29.83;3.72;;;8.40;99.90;;;;;;5075078;28;20050;-79
2023/05/27 04:54:22;;;;;;;15.68;3.40;;;8.50;99.90;;;;;;5048287;28;20045;-80
2023/05/27 04:56:52;;;;;;;12.63;3.42;;;8.60;99.90;;;;;;5054830;28;20128;-80
2023/05/27 04:59:35;;;;;;;18.92;2.90;;;8.70;99.90;;;;;;5039368;28;20041;-79
2023/05/27 05:02:21;;;;;;;15.90;3.53;;;8.60;99.90;;;;;;5054774;28;20052;-79
2023/05/27 05:04:58;;;;;;;21.88;4.32;;;8.60;99.90;;;;;;5055027;28;20052;-79
2023/05/27 05:07:25;;;;;;;20.85;3.83;;;8.70;99.90;;;;;;5054797;28;20044;-79
2023/05/27 05:09:52;;;;;;;13.27;3.50;;;8.80;99.90;;;;;;5053847;28;20102;-80
2023/05/27 05:12:26;;;;;;;12.95;3.58;;;9.00;99.90;;;;;;5039203;28;20045;-80
2023/05/27 05:14:54;;;;;;;9.80;3.20;;;9.10;99.90;;;;;;5055016;28;20041;-79
2023/05/27 05:17:24;;;;;;;16.52;3.90;;;9.20;99.90;;;;;;5053735;28;20037;-80
2023/05/27 05:19:51;;;;;;;18.50;3.78;;;9.30;99.90;;;;;;5055458;28;20056;-80
2023/05/27 05:22:22;;;;;;;15.32;3.75;;;9.50;99.90;;;;;;5054465;28;20048;-79
2023/05/27 05:24:50;;;;;;;15.90;4.03;;;9.70;99.90;;;;;;5054497;28;20052;-80
2023/05/27 05:27:23;;;;;;;24.23;4.72;;;9.80;99.90;;;;;;5054572;28;20047;-80
2023/05/27 05:29:50;;;;;;;27.67;5.00;;;9.90;99.90;;;;;;5053675;28;20047;-80
2023/05/27 05:32:17;;;;;;;22.55;4.43;;;10.00;99.90;;;;;;5037898;28;20045;-79
2023/05/27 05:34:44;;;;;;;13.07;3.40;;;10.10;99.90;;;;;;5054357;28;20408;-80
2023/05/27 05:37:13;;;;;;;13.07;3.30;;;10.20;99.90;;;;;;5037102;28;20033;-79
2023/05/27 05:39:40;;;;;;;15.80;4.13;;;10.30;99.90;;;;;;5054293;28;20051;-80
2023/05/27 05:42:07;;;;;;;20.15;4.22;;;10.40;99.90;;;;;;5053956;28;20542;-80
2023/05/27 05:44:34;;;;;;;17.75;4.20;;;10.50;99.90;;;;;;5053323;28;20107;-80
2023/05/27 05:47:02;;;;;;;14.45;3.90;;;10.50;99.90;;;;;;5037868;28;20040;-80
2023/05/27 05:49:30;;;;;;;20.48;4.28;;;10.70;99.90;;;;;;5053508;28;20052;-80
2023/05/27 05:51:57;;;;;;;26.88;5.22;;;10.70;99.90;;;;;;5037909;28;20055;-80
2023/05/27 05:54:23;;;;;;;17.65;4.18;;;10.80;99.90;;;;;;5053988;28;20052;-80
2023/05/27 05:59:40;;;;;;;17.77;4.13;;;11.00;99.90;;;;;;5053871;28;20041;-80
2023/05/27 06:02:07;;;;;;;15.80;4.68;;;11.10;99.90;;;;;;5053938;28;20083;-80
2023/05/27 06:04:34;;;;;;;21.15;4.93;;;11.10;99.90;;;;;;5053988;28;20055;-80
2023/05/27 06:09:51;;;;;;;18.90;4.28;;;11.40;99.90;;;;;;5054102;28;20071;-80
2023/05/27 06:12:26;;;;;;;20.70;3.97;;;11.40;99.90;;;;;;5053593;28;20040;-81
2023/05/27 06:14:53;;;;;;;19.38;4.38;;;11.50;99.90;;;;;;5055181;28;20154;-80
2023/05/27 06:17:26;;;;;;;18.35;4.07;;;11.60;99.90;;;;;;5056089;28;20040;-80
2023/05/27 06:19:53;;;;;;;17.02;3.58;;;11.60;99.90;;;;;;5073424;28;20139;-79
2023/05/27 06:22:20;;;;;;;16.52;3.83;;;11.70;99.90;;;;;;5054909;28;20549;-79
2023/05/27 06:25:07;;;;;;;29.55;3.92;;;11.80;99.90;;;;;;5043238;28;20060;-80
2023/05/27 06:28:00;;;;;;;18.83;3.83;;;11.90;99.90;;;;;;5071215;28;20060;-85
2023/05/27 06:30:27;;;;;;;17.52;3.85;;;12.00;99.90;;;;;;5046896;28;20470;-82
2023/05/27 06:32:55;;;;;;;18.90;3.83;;;12.10;99.90;;;;;;5056700;28;20051;-78
2023/05/27 06:35:24;;;;;;;21.73;4.28;;;12.10;99.90;;;;;;5057401;28;20401;-78
2023/05/27 06:37:51;;;;;;;16.73;4.03;;;12.20;99.90;;;;;;5072125;28;20374;-79
2023/05/27 06:40:18;;;;;;;18.35;3.85;;;12.20;99.90;;;;;;5073349;28;20405;-78
2023/05/27 06:42:45;;;;;;;18.33;3.70;;;12.30;99.90;;;;;;5055102;28;20106;-79
2023/05/27 06:45:25;;;;;;;19.95;4.20;;;12.50;99.90;;;;;;5058210;28;20048;-79
2023/05/27 06:48:04;;;;;;;23.52;3.97;;;12.50;99.90;;;;;;5073650;28;20041;-79
2023/05/27 06:50:31;;;;;;;16.42;4.00;;;12.60;99.90;;;;;;5071607;28;20052;-79
2023/05/27 06:52:57;;;;;;;18.20;3.63;;;12.70;99.90;;;;;;5072688;28;20040;-79
2023/05/27 06:55:29;;;;;;;19.20;3.55;;;12.80;99.90;;;;;;5057382;28;20471;-79
2023/05/27 06:58:16;;;;;;;24.60;4.35;;;12.90;99.90;;;;;;5074770;28;20437;-83
2023/05/27 07:00:56;;;;;;;11.60;3.17;;;13.00;99.90;;;;;;5073346;28;20144;-78
2023/05/27 07:03:28;;;;;;;19.00;4.32;;;13.10;99.90;;;;;;5072390;28;20052;-79
2023/05/27 07:05:55;;;;;;;17.42;3.80;;;13.20;99.90;;;;;;5073258;28;20045;-79
2023/05/27 07:08:24;;;;;;;20.42;3.88;;;13.30;99.90;;;;;;5073365;28;20045;-78
2023/05/27 07:11:04;;;;;;;18.08;3.88;;;13.50;99.90;;;;;;5089237;28;20387;-78
2023/05/27 07:13:31;;;;;;;19.63;4.10;;;13.50;99.90;;;;;;5073048;28;20044;-78
2023/05/27 07:15:58;;;;;;;15.63;4.13;;;13.60;99.90;;;;;;5072324;28;20102;-79
2023/05/27 07:18:27;;;;;;;25.05;3.85;;;13.70;99.90;;;;;;5077290;28;20041;-80
2023/05/27 07:20:57;;;;;;;19.13;4.35;;;13.80;99.90;;;;;;5042461;28;20106;-77
2023/05/27 07:23:24;;;;;;;14.90;4.18;;;13.90;99.90;;;;;;5056710;28;20049;-77
2023/05/27 07:26:02;;;;;;;21.17;3.70;;;14.00;99.90;;;;;;5066009;28;20044;-77
2023/05/27 07:28:29;;;;;;;17.35;4.40;;;14.10;99.90;;;;;;5076589;28;20044;-78
2023/05/27 07:31:07;;;;;;;22.27;3.55;;;14.00;99.90;;;;;;5076107;28;20059;-77
2023/05/27 07:33:41;;;;;;;16.73;3.60;;;14.00;99.90;;;;;;5076388;28;20102;-79
2023/05/27 07:36:12;;;;;;;21.67;4.18;;;14.20;99.90;;;;;;5076379;28;20391;-78
2023/05/27 07:38:39;;;;;;;17.70;4.05;;;14.30;99.90;;;;;;5076336;28;20490;-77
2023/05/27 07:41:06;;;;;;;17.63;4.40;;;14.40;99.90;;;;;;5076628;28;20032;-78
2023/05/27 07:43:33;;;;;;;20.25;4.00;;;14.40;99.90;;;;;;5058489;28;20053;-77
2023/05/27 07:46:00;;;;;;;15.98;5.00;;;14.50;99.90;;;;;;5059687;28;20474;-78
2023/05/27 07:48:27;;;;;;;18.88;4.15;;;14.60;99.90;;;;;;5076159;28;20055;-77
2023/05/27 07:50:54;;;;;;;15.40;3.83;;;14.70;99.90;;;;;;5074909;28;20051;-77
2023/05/27 07:53:21;;;;;;;15.95;3.97;;;14.90;99.90;;;;;;5074254;28;20481;-77
2023/05/27 07:55:48;;;;;;;21.55;4.75;;;14.90;99.90;;;;;;5054834;28;20071;-77
2023/05/27 07:58:16;;;;;;;20.92;4.30;;;15.20;99.90;;;;;;5055801;28;20045;-77
2023/05/27 08:00:55;;;;;;;17.00;4.35;;;15.40;99.90;;;;;;5056086;28;20071;-79
2023/05/27 08:03:21;;;;;;;15.85;3.75;;;15.50;99.90;;;;;;5067170;28;20079;-78
2023/05/27 08:05:57;;;;;;;14.52;4.25;;;15.50;99.90;;;;;;5075983;28;20044;-78
2023/05/27 08:08:39;;;;;;;21.60;4.30;;;15.50;99.90;;;;;;5075781;28;20066;-77
2023/05/27 08:11:11;;;;;;;11.82;3.72;;;15.50;99.90;;;;;;5075962;28;20048;-78
2023/05/27 08:13:56;;;;;;;16.85;4.25;;;15.40;99.90;;;;;;5075898;28;20185;-78
2023/05/27 08:16:46;;;;;;;11.60;4.15;;;15.40;99.90;;;;;;5061455;28;20132;-77
2023/05/27 08:19:29;;;;;;;15.50;4.22;;;15.50;99.90;;;;;;5075983;28;20053;-76
2023/05/27 08:22:03;;;;;;;17.85;4.45;;;15.80;99.90;;;;;;5075419;28;20040;-77
2023/05/27 08:24:43;;;;;;;20.67;4.88;;;15.80;99.90;;;;;;5076715;28;20427;-77
2023/05/27 08:27:35;;;;;;;18.13;4.90;;;15.90;99.90;;;;;;5075727;28;20118;-77
2023/05/27 08:30:04;;;;;;;18.05;4.18;;;16.00;99.90;;;;;;5057133;28;20095;-77
2023/05/27 08:32:47;;;;;;;23.35;4.85;;;16.10;99.90;;;;;;5071871;28;20041;-79
2023/05/27 08:35:18;;;;;;;15.48;4.80;;;16.50;99.90;;;;;;5075351;28;20052;-83
2023/05/27 08:37:45;;;;;;;20.77;5.13;;;16.80;99.90;;;;;;5060456;28;20116;-81
2023/05/27 08:40:12;;;;;;;17.95;5.15;;;16.90;99.90;;;;;;5060098;28;20045;-82
2023/05/27 08:42:42;;;;;;;21.67;5.68;;;17.10;99.90;;;;;;5056002;28;20052;-81
2023/05/27 08:45:10;;;;;;;13.60;4.97;;;17.20;99.90;;;;;;5057748;28;20143;-81
2023/05/27 08:47:36;;;;;;;20.65;5.22;;;17.20;99.90;;;;;;5074005;28;20048;-81
2023/05/27 08:50:04;;;;;;;18.92;5.65;;;17.30;99.90;;;;;;5055901;28;20052;-77
2023/05/27 08:52:30;;;;;;;22.25;5.50;;;17.50;99.90;;;;;;5071414;28;20075;-79
2023/05/27 08:54:58;;;;;;;27.65;6.25;;;17.70;99.90;;;;;;5077419;28;20542;-80
2023/05/27 08:57:25;;;;;;;22.60;6.55;;;17.70;99.90;;;;;;5073528;28;20048;-81
2023/05/27 08:59:52;;;;;;;21.25;6.13;;;17.70;99.90;;;;;;5060648;28;20033;-81
2023/05/27 09:02:19;;;;;;;24.13;7.45;;;17.70;99.90;;;;;;5052590;28;20045;-80
2023/05/27 09:04:46;;;;;;;26.92;9.40;;;17.70;99.90;;;;;;5038162;28;20076;-80
2023/05/27 09:07:12;;;;;;;25.55;9.70;;;17.70;99.90;;;;;;5074562;28;20078;-79
2023/05/27 09:09:39;;;;;;;25.67;10.18;;;17.80;99.90;;;;;;5073889;28;20048;-81
2023/05/27 09:12:08;;;;;;;30.77;10.13;;;17.70;99.90;;;;;;5073437;28;20046;-79
2023/05/27 09:14:37;;;;;;;27.10;8.98;;;17.60;99.90;;;;;;5057109;28;20059;-79
2023/05/27 09:17:04;;;;;;;27.02;8.48;;;17.40;99.90;;;;;;5072618;28;20063;-75
2023/05/27 09:19:31;;;;;;;26.73;8.60;;;17.40;99.90;;;;;;5073141;28;20157;-76
2023/05/27 09:21:58;;;;;;;23.17;6.75;;;17.50;99.90;;;;;;5074795;28;20047;-76
2023/05/27 09:24:24;;;;;;;26.50;9.23;;;17.60;99.90;;;;;;5074219;28;20135;-76
2023/05/27 09:26:51;;;;;;;23.17;8.60;;;17.50;99.90;;;;;;5075125;28;20075;-76
2023/05/27 09:29:18;;;;;;;26.27;9.10;;;17.60;99.90;;;;;;5074295;28;20451;-75
2023/05/27 09:31:45;;;;;;;26.73;9.27;;;17.80;99.90;;;;;;5075200;28;20052;-76
2023/05/27 09:34:12;;;;;;;29.25;10.60;;;17.80;99.90;;;;;;5074611;28;20045;-76
2023/05/27 09:36:40;;;;;;;21.70;9.40;;;17.90;99.90;;;;;;5074639;28;20106;-76
2023/05/27 09:39:06;;;;;;;32.35;9.43;;;17.90;99.90;;;;;;5073949;28;20479;-75
2023/05/27 09:41:33;;;;;;;22.77;9.35;;;18.10;99.90;;;;;;5073182;28;20075;-76
2023/05/27 09:44:02;;;;;;;23.70;9.15;;;18.40;99.90;;;;;;5036585;28;20408;-74
2023/05/27 09:46:28;;;;;;;21.58;9.38;;;18.50;99.90;;;;;;5054914;28;20045;-76
2023/05/27 09:48:55;;;;;;;29.20;9.23;;;18.50;99.90;;;;;;5054027;28;20443;-78
2023/05/27 09:51:22;;;;;;;21.90;10.13;;;18.40;99.90;;;;;;5037388;28;20139;-78
2023/05/27 09:53:49;;;;;;;27.33;9.02;;;18.40;99.90;;;;;;5035196;28;20045;-77
2023/05/27 09:56:16;;;;;;;21.77;9.32;;;18.60;99.90;;;;;;5033787;28;20424;-77
2023/05/27 09:58:42;;;;;;;27.35;8.90;;;18.70;99.90;;;;;;5034869;28;20041;-77
2023/05/27 10:01:09;;;;;;;25.05;8.50;;;18.80;99.90;;;;;;5017151;28;20116;-77
2023/05/27 10:03:37;;;;;;;24.92;8.32;;;19.10;99.90;;;;;;5016705;28;20034;-77
2023/05/27 10:06:04;;;;;;;21.90;8.15;;;19.10;99.90;;;;;;5034693;28;20037;-77
2023/05/27 10:08:33;;;;;;;27.08;7.90;;;19.00;99.90;;;;;;5016692;28;20118;-77
2023/05/27 10:11:00;;;;;;;26.48;8.27;;;19.30;99.90;;;;;;5016520;28;20037;-77
2023/05/27 10:13:26;;;;;;;22.45;8.68;;;19.40;99.90;;;;;;5017342;28;20073;-77
2023/05/27 10:15:53;;;;;;;21.80;8.75;;;19.40;99.90;;;;;;5033273;28;20128;-77
2023/05/27 10:18:21;;;;;;;25.30;8.57;;;19.50;99.90;;;;;;5017631;28;20045;-77
2023/05/27 10:20:47;;;;;;;21.50;8.68;;;19.70;99.90;;;;;;5034737;28;20129;-77
2023/05/27 10:23:15;;;;;;;23.27;9.05;;;19.70;99.90;;;;;;5015852;28;20385;-77
2023/05/27 10:25:42;;;;;;;20.50;8.63;;;20.10;99.90;;;;;;5034716;28;20037;-77
2023/05/27 10:28:08;;;;;;;20.65;8.55;;;20.40;99.90;;;;;;5034426;28;20102;-77
2023/05/27 10:30:35;;;;;;;23.60;8.98;;;20.60;99.90;;;;;;5033486;28;20041;-77
2023/05/27 10:33:02;;;;;;;20.42;9.77;;;20.80;99.90;;;;;;5016943;28;20522;-77
2023/05/27 10:35:28;;;;;;;21.90;8.60;;;20.60;99.90;;;;;;5034437;28;20056;-77
2023/05/27 10:37:55;;;;;;;21.13;7.95;;;20.80;99.90;;;;;;5033332;28;20533;-77
2023/05/27 10:40:22;;;;;;;19.02;8.23;;;20.90;99.90;;;;;;5034321;28;20033;-77
2023/05/27 10:42:48;;;;;;;22.17;7.43;;;21.10;99.90;;;;;;5032807;28;20067;-77
2023/05/27 10:45:15;;;;;;;13.75;6.75;;;21.50;99.90;;;;;;5016967;28;20037;-77
2023/05/27 10:47:42;;;;;;;25.90;7.82;;;21.60;99.90;;;;;;5017102;28;20103;-77
2023/05/27 10:50:09;;;;;;;21.00;8.57;;;21.60;99.90;;;;;;5033000;28;20053;-77
2023/05/27 10:52:36;;;;;;;18.10;6.57;;;21.70;99.90;;;;;;5036411;28;20413;-77
2023/05/27 10:55:03;;;;;;;17.80;6.80;;;21.80;99.90;;;;;;5053342;28;20120;-77
2023/05/27 10:57:30;;;;;;;18.52;6.28;;;22.00;99.90;;;;;;5039938;28;20041;-77
2023/05/27 10:59:56;;;;;;;24.88;8.40;;;22.00;99.90;;;;;;5057735;28;20051;-83
2023/05/27 11:02:26;;;;;;;20.38;6.25;;;22.20;99.90;;;;;;5039590;28;20116;-78
2023/05/27 11:04:52;;;;;;;19.65;6.50;;;22.30;99.90;;;;;;5040509;28;20118;-78
2023/05/27 11:07:19;;;;;;;29.67;7.60;;;22.60;99.90;;;;;;5057967;28;20367;-77
2023/05/27 11:09:46;;;;;;;20.00;6.55;;;22.80;99.90;;;;;;5057238;28;20063;-77
2023/05/27 11:12:13;;;;;;;20.10;7.07;;;22.90;99.90;;;;;;5057585;28;20467;-78
2023/05/27 11:14:39;;;;;;;22.05;7.38;;;23.00;99.90;;;;;;5057907;28;20073;-77
2023/05/27 11:17:06;;;;;;;17.63;6.85;;;23.00;99.90;;;;;;5039172;28;20048;-77
2023/05/27 11:19:33;;;;;;;15.93;6.65;;;23.20;99.90;;;;;;5061394;28;20041;-78
2023/05/27 11:22:00;;;;;;;17.65;6.05;;;23.10;98.80;;;;;;5065672;28;20460;-78
2023/05/27 11:24:26;;;;;;;14.27;5.35;;;23.60;98.80;;;;;;5039334;28;20107;-78
2023/05/27 11:26:53;;;;;;;20.75;6.05;;;24.00;99.50;;;;;;5057655;28;20065;-78
2023/05/27 11:29:20;;;;;;;21.67;7.13;;;24.30;96.00;;;;;;5056479;28;20079;-78
2023/05/27 11:31:47;;;;;;;17.30;6.25;;;24.30;94.50;;;;;;5039856;28;20041;-78
2023/05/27 11:34:13;;;;;;;19.83;6.18;;;24.40;94.40;;;;;;5039754;28;20048;-78
2023/05/27 11:36:40;;;;;;;24.75;9.75;;;24.40;94.10;;;;;;5056442;28;20526;-78
2023/05/27 11:39:08;;;;;;;22.92;9.65;;;24.90;94.20;;;;;;5057671;28;20489;-78
2023/05/27 11:41:35;;;;;;;17.27;6.10;;;25.10;93.70;;;;;;5057028;28;20045;-77
2023/05/27 11:44:01;;;;;;;19.17;6.93;;;25.30;92.80;;;;;;5038811;28;20494;-78
2023/05/27 11:46:28;;;;;;;21.30;7.30;;;25.00;92.90;;;;;;5057335;28;20072;-77
2023/05/27 11:48:55;;;;;;;19.50;6.22;;;25.40;91.20;;;;;;5038933;28;20037;-77
2023/05/27 11:51:21;;;;;;;20.33;6.60;;;25.30;91.90;;;;;;5056683;28;20119;-77
2023/05/27 11:53:48;;;;;;;23.00;7.00;;;25.00;92.20;;;;;;5039445;28;20056;-77
2023/05/27 11:56:15;;;;;;;16.83;5.80;;;25.20;92.10;;;;;;5055731;28;20037;-79
2023/05/27 11:58:42;;;;;;;16.65;6.20;;;25.40;90.10;;;;;;5039855;28;20037;-77
2023/05/27 12:01:09;;;;;;;18.25;5.32;;;25.50;90.70;;;;;;5056480;28;20041;-77
2023/05/27 12:03:35;;;;;;;16.02;6.40;;;25.70;90.80;;;;;;5055808;28;20048;-77
2023/05/27 12:06:03;;;;;;;24.05;6.95;;;25.60;90.20;;;;;;5056885;28;20041;-77
2023/05/27 12:08:29;;;;;;;18.27;6.35;;;25.70;86.20;;;;;;5039589;28;20667;-77
2023/05/27 12:10:56;;;;;;;16.80;5.55;;;25.60;87.90;;;;;;5055381;28;20049;-79
2023/05/27 12:13:23;;;;;;;20.48;6.88;;;25.70;87.80;;;;;;5056782;28;20045;-77
2023/05/27 12:15:50;;;;;;;17.05;6.03;;;25.90;87.60;;;;;;5038042;28;20064;-77
2023/05/27 12:18:17;;;;;;;15.38;5.45;;;26.20;89.40;;;;;;5056677;28;20371;-77
2023/05/27 12:20:44;;;;;;;18.55;5.85;;;26.30;86.60;;;;;;5039125;28;20040;-77
2023/05/27 12:23:11;;;;;;;18.17;6.13;;;26.60;83.90;;;;;;5037830;28;20102;-77
2023/05/27 12:25:37;;;;;;;17.20;6.05;;;26.40;83.50;;;;;;5038914;28;20426;-77
2023/05/27 12:28:05;;;;;;;19.98;6.03;;;26.50;85.40;;;;;;5038749;28;20441;-77
2023/05/27 12:30:33;;;;;;;18.52;5.80;;;26.50;83.90;;;;;;5055379;28;20037;-77
2023/05/27 12:33:00;;;;;;;15.05;5.45;;;26.60;85.50;;;;;;5038470;28;20083;-77
2023/05/27 12:35:26;;;;;;;19.88;6.95;;;27.10;83.40;;;;;;5039011;28;20040;-77
2023/05/27 12:37:53;;;;;;;17.42;6.75;;;27.00;82.40;;;;;;5055220;28;20067;-77
2023/05/27 12:40:20;;;;;;;20.10;5.95;;;27.10;80.10;;;;;;5055617;28;20055;-77
2023/05/27 12:42:46;;;;;;;16.30;6.25;;;27.20;80.20;;;;;;5054481;28;20081;-77
2023/05/27 12:45:13;;;;;;;19.92;5.60;;;26.90;79.30;;;;;;5038581;28;20044;-77
2023/05/27 12:47:40;;;;;;;17.13;5.82;;;26.20;80.80;;;;;;5056159;28;20044;-78
2023/05/27 12:50:06;;;;;;;19.25;5.93;;;26.70;83.00;;;;;;5055143;28;20068;-78
2023/05/27 12:52:35;;;;;;;19.48;5.90;;;27.00;81.30;;;;;;5055695;28;20045;-78
2023/05/27 12:55:02;;;;;;;18.52;5.90;;;27.00;79.00;;;;;;5055757;28;20037;-77
2023/05/27 12:57:29;;;;;;;20.23;6.07;;;27.00;80.20;;;;;;5054979;28;20041;-77
2023/05/27 12:59:56;;;;;;;16.73;5.60;;;27.40;79.00;;;;;;5055928;28;20116;-78
2023/05/27 13:02:22;;;;;;;15.60;5.78;;;27.50;78.30;;;;;;5054307;28;20045;-77
2023/05/27 13:04:50;;;;;;;18.52;5.55;;;27.00;76.10;;;;;;5038111;28;20056;-77
2023/05/27 13:07:17;;;;;;;18.00;6.07;;;27.20;76.40;;;;;;5055837;28;20514;-77
2023/05/27 13:09:44;;;;;;;17.27;5.53;;;27.00;78.10;;;;;;5054494;28;20460;-78
2023/05/27 13:12:11;;;;;;;17.98;5.85;;;27.40;79.20;;;;;;5037723;28;20426;-77
2023/05/27 13:14:38;;;;;;;16.02;5.93;;;27.90;77.80;;;;;;5055309;28;20091;-78
2023/05/27 13:17:06;;;;;;;18.98;6.18;;;28.10;73.80;;;;;;5054342;28;20041;-78
2023/05/27 13:19:32;;;;;;;20.67;7.13;;;28.10;74.30;;;;;;5055680;28;20463;-83